Rosepine, Louisiana
Current Conditions -  °F | °C
As of 9:15 AM on Friday 19 Dec 2014 (Local Time) from KDRI Reporting Station
Moderate Rain Moderate Rain  
Wind Chill: 53°   Ceiling: 200
Heat Index: 53°   Visibility: 5mi
Dew Point: 52°   Wind: 3mph
Humidity: 96%   Direction: 90°E
Pressure: 30.14"   Gusts: NA
Location:  30.92°N, 93.28°W
Report Text: KDRI 191515Z AUTO 09003KT 5SM RA BKN002 BKN012 OVC042 12/11 A3014 RMK AO2 P0003 T01160110
Loading
Personal Weather Stations






























Interactive Weather Map New forecast layout! Learn more

10-Day Weather Forecast

Advertisements
Track Severe Weather on mobile